createdAt,value
2022-09-28T00:13:36.621Z,90.03
2022-09-28T00:16:31.934Z,90.49
2022-09-28T00:19:19.158Z,88.72
2022-09-28T00:21:56.949Z,88.84
2022-09-28T00:24:53.541Z,90.12
2022-09-28T00:27:51.549Z,90.67
2022-09-28T00:30:51.883Z,89.93
2022-09-28T00:33:46.761Z,89.77
2022-09-28T00:36:31.035Z,90.61
2022-09-28T00:39:21.704Z,91.28
2022-09-28T00:42:11.889Z,91.89
2022-09-28T00:44:43.248Z,90.82
2022-09-28T00:47:49.784Z,91.64
2022-09-28T00:51:12.227Z,90.85
2022-09-28T00:54:05.430Z,92.29
2022-09-28T00:56:51.597Z,92.54
2022-09-28T00:59:46.991Z,92.58
2022-09-28T01:02:43.171Z,92.00
2022-09-28T01:05:36.163Z,91.74
2022-09-28T01:08:31.999Z,90.78
2022-09-28T01:11:15.091Z,90.90
2022-09-28T01:14:06.996Z,88.66
2022-09-28T01:16:50.504Z,89.35
2022-09-28T01:20:09.400Z,90.11
2022-09-28T01:23:04.466Z,90.78
2022-09-28T01:26:18.716Z,90.10
2022-09-28T01:28:59.752Z,91.17
2022-09-28T01:31:43.019Z,90.14
2022-09-28T01:34:35.435Z,91.54
2022-09-28T01:37:45.641Z,92.10
2022-09-28T01:40:38.067Z,91.78
2022-09-28T01:43:38.653Z,90.40
2022-09-28T01:46:35.303Z,90.80
2022-09-28T01:49:49.198Z,89.74
2022-09-28T01:52:21.521Z,89.95
2022-09-28T01:55:11.249Z,91.04
2022-09-28T01:58:04.057Z,89.84
2022-09-28T02:01:02.984Z,88.78
2022-09-28T02:04:04.725Z,88.16
2022-09-28T02:07:17.844Z,87.43
2022-09-28T02:10:03.920Z,88.85
2022-09-28T02:12:51.672Z,87.57
2022-09-28T02:15:51.440Z,87.33
2022-09-28T02:18:42.918Z,88.72
2022-09-28T02:21:42.667Z,87.24
2022-09-28T02:24:47.040Z,88.89
2022-09-28T02:27:42.761Z,87.88
2022-09-28T02:30:36.682Z,88.53
2022-09-28T02:33:38.525Z,87.97
2022-09-28T02:36:49.062Z,88.99
2022-09-28T02:39:19.728Z,88.03
2022-09-28T02:42:27.663Z,87.34
2022-09-28T02:45:28.667Z,87.57
2022-09-28T02:49:04.989Z,88.36
2022-09-28T02:52:37.192Z,89.38
2022-09-28T02:55:38.739Z,88.85
2022-09-28T02:58:45.951Z,88.33
2022-09-28T03:02:21.021Z,89.56
2022-09-28T03:05:11.531Z,88.58
2022-09-28T03:08:13.271Z,88.43
2022-09-28T03:11:21.182Z,87.90
2022-09-28T03:14:16.803Z,87.55
2022-09-28T03:17:31.091Z,87.14
2022-09-28T03:20:25.663Z,86.33
2022-09-28T03:23:35.038Z,86.42
2022-09-28T03:26:27.813Z,85.84
2022-09-28T03:29:24.634Z,85.53
2022-09-28T03:32:23.208Z,85.31
2022-09-28T03:34:50.265Z,84.53
2022-09-28T03:37:44.556Z,83.55
2022-09-28T03:40:22.632Z,83.98
2022-09-28T03:46:42.379Z,82.66
2022-09-28T03:49:37.637Z,82.60
2022-09-28T03:52:30.395Z,81.54
2022-09-28T03:55:12.006Z,83.18
2022-09-28T03:58:52.475Z,82.53
2022-09-28T04:01:34.347Z,82.49
2022-09-28T04:04:26.700Z,82.52
2022-09-28T04:07:19.586Z,82.78
2022-09-28T04:10:00.419Z,82.28
2022-09-28T04:13:09.291Z,82.27
2022-09-28T04:16:02.964Z,82.66
2022-09-28T04:18:52.623Z,81.90
2022-09-28T04:21:48.311Z,82.21
2022-09-28T04:24:27.524Z,82.18
2022-09-28T04:27:32.450Z,81.91
2022-09-28T04:30:10.070Z,81.06
2022-09-28T04:33:00.540Z,81.74
2022-09-28T10:19:45.381Z,55.50
2022-09-28T10:22:31.378Z,58.57
2022-09-28T10:25:18.456Z,56.50
2022-09-28T10:27:57.620Z,56.44
2022-09-28T10:30:45.580Z,60.53
2022-09-28T10:33:38.110Z,60.23
2022-09-28T10:36:10.337Z,58.12
2022-09-28T10:38:44.644Z,55.76
2022-09-28T10:41:22.943Z,56.34
2022-09-28T10:44:11.159Z,55.69
2022-09-28T10:46:39.449Z,56.56
2022-09-28T10:49:24.334Z,57.53
2022-09-28T10:52:01.477Z,56.95
2022-09-28T10:54:37.924Z,57.50
2022-09-28T10:57:30.386Z,54.94
2022-09-28T11:00:21.747Z,61.03
2022-09-28T11:02:48.735Z,58.59
2022-09-28T11:05:55.384Z,47.27
2022-09-28T11:08:56.083Z,50.33
2022-09-28T11:12:03.340Z,49.66
2022-09-28T11:17:56.996Z,46.34
2022-09-28T11:20:37.179Z,47.06
2022-09-28T11:23:31.919Z,49.21
2022-09-28T11:26:19.843Z,49.92
2022-09-28T11:28:58.312Z,44.42
2022-09-28T11:32:29.544Z,46.78
2022-09-28T11:35:05.155Z,42.31
2022-09-28T11:38:05.469Z,42.31
2022-09-28T15:07:16.147Z,45.54
2022-09-28T15:20:42.744Z,44.55
2022-09-28T15:27:19.090Z,46.35
2022-09-28T15:30:25.388Z,44.63
2022-09-28T15:36:52.423Z,49.38
2022-09-28T15:50:05.565Z,51.32
2022-09-28T15:53:08.570Z,51.59
2022-09-28T16:50:27.520Z,55.63
2022-09-28T16:54:06.167Z,55.35
2022-09-28T17:03:52.118Z,55.93
2022-09-28T17:06:37.604Z,56.12
2022-09-28T17:12:43.612Z,56.48
2022-09-28T17:18:17.237Z,56.48
2022-09-28T17:21:13.826Z,56.11
2022-09-28T17:30:36.410Z,57.77
2022-09-28T17:34:03.372Z,59.38
2022-09-28T17:37:21.339Z,59.30
2022-09-28T17:47:03.024Z,57.41
2022-09-28T17:57:10.925Z,59.08
2022-09-28T18:00:00.864Z,58.98
2022-09-28T18:08:39.316Z,59.26
2022-09-28T18:11:35.198Z,59.73
2022-09-28T18:14:26.451Z,60.31
2022-09-28T18:17:10.549Z,60.23
2022-09-28T18:19:54.155Z,60.48
2022-09-28T18:23:03.222Z,60.93
2022-09-28T18:25:59.719Z,60.55
2022-09-28T18:28:44.407Z,60.27
2022-09-28T18:31:47.098Z,61.17
2022-09-28T18:34:38.261Z,63.08
2022-09-28T18:37:13.445Z,63.48
2022-09-28T18:40:07.161Z,65.37
2022-09-28T18:42:49.045Z,64.74
2022-09-28T18:45:38.352Z,64.81
2022-09-28T18:48:12.792Z,65.26
2022-09-28T18:51:13.595Z,63.71
2022-09-28T18:54:27.433Z,64.83
2022-09-28T19:00:43.702Z,65.40
2022-09-28T19:03:42.313Z,64.11
2022-09-28T19:09:44.517Z,66.51
2022-09-28T19:15:55.792Z,67.61
2022-09-28T19:18:50.174Z,68.48
2022-09-28T19:21:26.245Z,65.92
2022-09-28T19:24:26.507Z,68.12
2022-09-28T19:27:16.552Z,67.38
2022-09-28T19:30:21.431Z,67.25
2022-09-28T19:33:40.542Z,68.90
2022-09-28T19:36:45.862Z,68.63
2022-09-28T19:45:31.956Z,69.17
2022-09-28T19:52:18.458Z,70.07
2022-09-28T19:55:32.608Z,71.79
2022-09-28T19:58:38.652Z,72.29
2022-09-28T20:01:40.086Z,71.93
2022-09-28T20:04:22.173Z,74.23
2022-09-28T20:07:08.616Z,74.81
2022-09-28T20:09:51.889Z,74.40
2022-09-28T20:12:35.819Z,71.79
2022-09-28T20:15:37.018Z,71.91
2022-09-28T20:18:36.933Z,72.85
2022-09-28T20:21:26.445Z,72.78
2022-09-28T20:24:14.825Z,72.89
2022-09-28T20:26:54.676Z,69.90
2022-09-28T20:32:48.735Z,74.20
2022-09-28T20:35:33.308Z,74.44
2022-09-28T20:38:24.591Z,75.20
2022-09-28T20:41:17.506Z,72.22
2022-09-28T20:43:56.599Z,74.47
2022-09-28T20:47:01.483Z,68.00
2022-09-28T20:49:45.135Z,70.84
2022-09-28T20:52:38.396Z,70.09
2022-09-28T20:55:36.363Z,73.93
2022-09-28T20:58:33.992Z,71.34
2022-09-28T21:01:40.379Z,71.90
2022-09-28T21:11:23.164Z,72.83
2022-09-28T21:16:57.437Z,71.80
2022-09-28T21:20:28.979Z,76.59
2022-09-28T21:23:36.724Z,76.41
2022-09-28T21:29:24.881Z,75.71
2022-09-28T21:38:30.638Z,77.06
2022-09-28T21:53:38.027Z,75.55
2022-09-28T21:56:32.896Z,75.95
2022-09-28T22:00:00.533Z,77.64
2022-09-28T22:02:38.141Z,79.36
2022-09-28T22:05:21.507Z,80.01
2022-09-28T22:08:09.284Z,83.56
2022-09-28T22:11:16.952Z,84.56
2022-09-28T22:14:24.352Z,84.71
2022-09-28T22:26:56.108Z,86.19
2022-09-28T22:36:07.799Z,83.93
2022-09-28T22:38:48.986Z,86.65
2022-09-28T22:41:23.820Z,86.74
2022-09-28T22:47:16.111Z,88.25
2022-09-28T22:50:01.417Z,87.51
2022-09-28T22:55:45.706Z,85.38
2022-09-28T22:58:37.974Z,85.55
2022-09-28T23:01:45.448Z,87.16
2022-09-28T23:08:14.678Z,89.85
2022-09-28T23:17:52.994Z,89.22
2022-09-28T23:23:44.394Z,89.28
2022-09-28T23:26:27.314Z,85.33
2022-09-28T23:29:17.467Z,90.10
2022-09-28T23:32:05.349Z,88.54
2022-09-28T23:38:03.772Z,89.32
2022-09-28T23:40:46.736Z,89.87
2022-09-28T23:43:23.672Z,90.62
2022-09-28T23:45:59.740Z,90.51
2022-09-28T23:48:41.565Z,90.05
2022-09-28T23:54:31.736Z,88.61
2022-09-28T23:57:20.122Z,90.91
